createdAt,value
2023-04-01T00:01:02.351Z,12.50
2023-04-01T00:03:32.012Z,12.62
2023-04-01T00:06:01.777Z,12.40
2023-04-01T00:08:30.894Z,12.37
2023-04-01T00:11:01.252Z,12.37
2023-04-01T00:13:29.696Z,12.37
2023-04-01T00:15:59.986Z,12.37
2023-04-01T00:18:28.775Z,12.54
2023-04-01T00:20:57.051Z,12.52
2023-04-01T00:23:25.249Z,12.68
2023-04-01T00:25:53.667Z,12.71
2023-04-01T00:28:23.420Z,12.50
2023-04-01T00:30:51.788Z,12.33
2023-04-01T00:33:20.170Z,12.41
2023-04-01T00:35:48.869Z,12.30
2023-04-01T00:38:18.003Z,12.43
2023-04-01T00:40:47.940Z,12.00
2023-04-01T00:43:20.588Z,12.12
2023-04-01T00:45:51.261Z,12.40
2023-04-01T00:48:22.052Z,12.30
2023-04-01T00:50:53.371Z,12.50
2023-04-01T00:53:23.771Z,12.23
2023-04-01T00:55:56.446Z,11.50
2023-04-01T00:58:28.336Z,11.82
2023-04-01T01:01:01.188Z,11.58
2023-04-01T01:03:29.517Z,12.15
2023-04-01T01:06:26.777Z,12.17
2023-04-01T01:09:08.640Z,12.06
2023-04-01T01:11:43.572Z,12.25
2023-04-01T01:14:28.946Z,12.25
2023-04-01T01:17:13.319Z,11.53
2023-04-01T01:19:55.743Z,11.65
2023-04-01T01:22:51.051Z,11.79
2023-04-01T01:25:35.025Z,11.78
2023-04-01T01:28:21.464Z,12.04
2023-04-01T01:30:59.294Z,12.08
2023-04-01T01:33:45.379Z,11.36
2023-04-01T01:36:17.940Z,11.71
2023-04-01T01:38:48.496Z,11.48
2023-04-01T01:41:21.275Z,11.93
2023-04-01T01:43:52.472Z,11.02
2023-04-01T01:46:25.184Z,11.41
2023-04-01T01:48:54.806Z,11.21
2023-04-01T01:51:26.023Z,11.57
2023-04-01T01:53:54.464Z,11.27
2023-04-01T01:56:25.866Z,11.51
2023-04-01T01:58:57.048Z,11.83
2023-04-01T02:01:28.776Z,11.77
2023-04-01T02:03:58.576Z,11.59
2023-04-01T02:06:31.885Z,11.03
2023-04-01T02:09:04.122Z,10.95
2023-04-01T02:11:37.081Z,11.41
2023-04-01T02:14:09.831Z,11.02
2023-04-01T02:16:46.502Z,11.11
2023-04-01T02:19:23.582Z,11.27
2023-04-01T02:21:57.353Z,11.47
2023-04-01T02:24:28.885Z,11.20
2023-04-01T02:26:57.325Z,11.55
2023-04-01T02:29:27.387Z,11.56
2023-04-01T02:31:56.971Z,10.83
2023-04-01T02:34:26.804Z,11.24
2023-04-01T02:36:58.782Z,11.29
2023-04-01T02:39:27.639Z,11.78
2023-04-01T02:41:56.066Z,11.21
2023-04-01T02:44:24.684Z,11.10
2023-04-01T02:46:53.848Z,11.19
2023-04-01T02:49:22.520Z,10.95
2023-04-01T02:51:50.851Z,11.01
2023-04-01T02:54:20.722Z,11.17
2023-04-01T02:56:49.035Z,11.44
2023-04-01T02:59:17.505Z,11.47
2023-04-01T03:01:45.722Z,11.14
2023-04-01T03:04:14.088Z,11.79
2023-04-01T03:06:42.313Z,11.78
2023-04-01T03:09:10.617Z,12.07
2023-04-01T03:11:41.924Z,11.44
2023-04-01T03:14:10.219Z,11.53
2023-04-01T03:16:38.616Z,11.68
2023-04-01T03:19:07.011Z,11.91
2023-04-01T03:21:35.328Z,11.98
2023-04-01T03:24:03.754Z,12.07
2023-04-01T03:26:32.064Z,12.13
2023-04-01T03:29:01.695Z,12.16
2023-04-01T03:31:30.102Z,12.15
2023-04-01T03:33:58.562Z,11.74
2023-04-01T03:36:27.068Z,11.25
2023-04-01T03:38:55.515Z,10.99
2023-04-01T03:41:23.947Z,10.76
2023-04-01T03:43:52.232Z,10.67
2023-04-01T03:46:22.357Z,10.20
2023-04-01T03:48:50.719Z,10.13
2023-04-01T03:51:18.969Z,10.03
2023-04-01T03:53:47.339Z,9.94
2023-04-01T03:56:15.781Z,9.68
2023-04-01T03:58:44.007Z,10.27
2023-04-01T04:01:21.871Z,9.45
2023-04-01T04:03:52.810Z,9.37
2023-04-01T04:06:21.921Z,9.74
2023-04-01T04:08:50.296Z,10.01
2023-04-01T04:11:19.130Z,10.35
2023-04-01T04:13:48.912Z,10.53
2023-04-01T04:16:18.150Z,10.62
2023-04-01T04:18:46.434Z,10.86
2023-04-01T04:21:17.585Z,10.81
2023-04-01T04:23:46.063Z,10.71
2023-04-01T04:26:16.473Z,10.31
2023-04-01T04:28:44.924Z,10.70
2023-04-01T04:31:13.762Z,10.81
2023-04-01T04:33:42.097Z,10.84
2023-04-01T04:36:10.944Z,10.79
2023-04-01T04:38:40.635Z,10.89
2023-04-01T04:41:13.002Z,11.02
2023-04-01T04:43:41.852Z,10.92
2023-04-01T04:46:10.526Z,11.07
2023-04-01T04:48:39.242Z,10.87
2023-04-01T04:51:07.555Z,11.05
2023-04-01T04:53:35.852Z,11.04
2023-04-01T04:56:05.685Z,10.86
2023-04-01T04:58:34.861Z,10.38
2023-04-01T05:01:08.522Z,10.55
2023-04-01T05:03:36.863Z,11.22
2023-04-01T05:06:05.605Z,11.31
2023-04-01T05:08:34.030Z,11.53
2023-04-01T05:11:02.419Z,11.37
2023-04-01T05:13:32.178Z,10.98
2023-04-01T05:16:00.480Z,10.89
2023-04-01T05:18:28.726Z,11.15
2023-04-01T05:20:57.610Z,11.21
2023-04-01T05:23:25.834Z,11.63
2023-04-01T05:25:54.505Z,11.56
2023-04-01T05:28:22.777Z,11.02
2023-04-01T05:30:52.608Z,10.66
2023-04-01T05:33:21.028Z,10.63
2023-04-01T05:35:49.318Z,10.58
2023-04-01T05:38:17.661Z,10.80
2023-04-01T05:40:46.013Z,11.29
2023-04-01T05:43:14.423Z,11.63
2023-04-01T05:45:42.741Z,11.78
2023-04-01T05:48:12.458Z,11.57
2023-04-01T05:50:42.659Z,11.31
2023-04-01T05:53:11.011Z,11.35
2023-04-01T05:55:39.393Z,11.44
2023-04-01T05:58:07.812Z,11.77
2023-04-01T06:00:36.126Z,11.85
2023-04-01T06:03:07.269Z,11.18
2023-04-01T06:05:42.275Z,11.26
2023-04-01T06:08:14.464Z,11.42
2023-04-01T06:10:57.894Z,11.64
2023-04-01T06:13:40.308Z,12.48
2023-04-01T06:16:18.376Z,13.01
2023-04-01T06:19:19.437Z,12.77
2023-04-01T06:22:07.406Z,14.02
2023-04-01T06:24:56.149Z,14.24
2023-04-01T06:27:39.280Z,14.65
2023-04-01T06:30:21.671Z,14.74
2023-04-01T06:33:03.569Z,15.63
2023-04-01T06:35:59.507Z,15.77
2023-04-01T06:38:47.920Z,16.11
2023-04-01T06:41:58.850Z,16.45
2023-04-01T06:44:37.500Z,16.15
2023-04-01T06:47:20.790Z,16.70
2023-04-01T06:49:58.916Z,16.78
2023-04-01T06:52:34.514Z,15.66
2023-04-01T06:55:15.634Z,15.84
2023-04-01T06:57:47.723Z,16.38
2023-04-01T07:00:20.752Z,16.55
2023-04-01T07:02:56.849Z,16.59
2023-04-01T07:05:26.124Z,16.09
2023-04-01T07:07:59.436Z,16.02
2023-04-01T07:10:38.263Z,16.63
2023-04-01T07:13:11.061Z,16.36
2023-04-01T07:15:42.658Z,17.55
2023-04-01T07:18:17.943Z,17.82
2023-04-01T07:20:48.230Z,18.14
2023-04-01T07:23:23.981Z,18.04
2023-04-01T07:26:00.872Z,17.84
2023-04-01T07:28:35.098Z,17.31
2023-04-01T07:31:16.576Z,17.08
2023-04-01T07:33:53.105Z,17.15
2023-04-01T07:36:29.970Z,17.93
2023-04-01T07:39:06.601Z,17.96
2023-04-01T07:41:49.758Z,18.01
2023-04-01T07:44:27.206Z,17.61
2023-04-01T07:47:05.101Z,18.40
2023-04-01T07:49:43.358Z,18.79
2023-04-01T07:52:20.644Z,18.79
2023-04-01T07:54:53.934Z,17.75
2023-04-01T07:57:30.043Z,18.58
2023-04-01T08:00:04.176Z,17.78
2023-04-01T08:02:47.312Z,17.22
2023-04-01T08:05:24.513Z,17.27
2023-04-01T08:08:03.073Z,18.11
2023-04-01T08:10:39.792Z,17.22
2023-04-01T08:13:18.280Z,18.35
2023-04-01T08:15:53.222Z,18.94
2023-04-01T08:18:32.418Z,19.95
2023-04-01T08:21:03.968Z,20.07
2023-04-01T08:23:36.033Z,19.13
2023-04-01T08:26:09.251Z,18.76
2023-04-01T08:28:43.824Z,18.78
2023-04-01T08:31:16.608Z,19.33
2023-04-01T08:33:48.534Z,19.76
2023-04-01T08:36:19.382Z,19.31
2023-04-01T08:38:54.152Z,19.46
2023-04-01T08:41:41.717Z,19.74
2023-04-01T08:44:35.342Z,19.10
2023-04-01T08:47:26.896Z,19.77
2023-04-01T08:50:21.402Z,20.46
2023-04-01T08:52:55.542Z,19.72
2023-04-01T08:55:38.720Z,19.75
2023-04-01T08:58:23.494Z,20.65
2023-04-01T09:00:58.131Z,20.88
2023-04-01T09:03:44.209Z,20.30
2023-04-01T09:06:40.748Z,20.96
2023-04-01T09:09:38.371Z,20.34
2023-04-01T09:12:46.815Z,20.73
2023-04-01T09:15:29.936Z,21.28
2023-04-01T09:18:29.914Z,21.85
2023-04-01T09:21:18.596Z,22.67
2023-04-01T09:24:16.124Z,23.54
2023-04-01T09:27:04.752Z,23.67
2023-04-01T09:30:05.948Z,24.06
2023-04-01T09:32:51.900Z,24.18
2023-04-01T09:35:26.875Z,23.90
2023-04-01T09:38:00.233Z,24.54
2023-04-01T09:40:39.959Z,24.42
2023-04-01T09:43:28.313Z,24.27
2023-04-01T09:46:15.276Z,25.27
2023-04-01T09:49:15.252Z,26.41
2023-04-01T09:51:57.645Z,26.33
2023-04-01T09:54:43.729Z,26.19
2023-04-01T09:57:35.993Z,24.50
2023-04-01T10:00:38.155Z,24.37
2023-04-01T10:03:57.351Z,24.12
2023-04-01T10:07:00.032Z,24.83
2023-04-01T10:10:10.419Z,25.49
2023-04-01T10:13:26.524Z,24.83
2023-04-01T10:16:13.166Z,25.26
2023-04-01T10:19:29.872Z,25.27
2023-04-01T10:22:39.921Z,26.29
2023-04-01T10:25:21.834Z,26.89
2023-04-01T10:28:16.408Z,27.90
2023-04-01T10:31:06.869Z,27.41
2023-04-01T10:34:08.291Z,26.36
2023-04-01T10:36:54.485Z,27.27
2023-04-01T10:39:39.825Z,28.17
2023-04-01T10:42:40.750Z,28.77
2023-04-01T10:45:41.172Z,28.34
2023-04-01T10:48:25.726Z,30.04
2023-04-01T10:51:13.188Z,28.73
2023-04-01T10:54:24.621Z,29.33
2023-04-01T10:57:03.686Z,29.93
2023-04-01T11:00:08.526Z,30.70
2023-04-01T11:03:05.355Z,29.79
2023-04-01T11:06:14.166Z,29.93
2023-04-01T11:09:26.769Z,28.32
2023-04-01T11:12:34.704Z,29.11
2023-04-01T11:15:39.915Z,31.55
2023-04-01T11:18:40.907Z,30.62
2023-04-01T11:21:49.994Z,30.37
2023-04-01T11:24:40.506Z,29.01
2023-04-01T11:27:24.132Z,30.57
2023-04-01T11:30:05.482Z,30.14
2023-04-01T11:32:56.382Z,30.11
2023-04-01T11:35:52.689Z,28.38
2023-04-01T11:38:33.897Z,28.38
2023-04-01T11:41:15.912Z,27.90
2023-04-01T11:43:52.649Z,28.10
2023-04-01T11:46:29.968Z,28.49
2023-04-01T11:49:10.034Z,27.85
2023-04-01T11:51:56.767Z,28.03
2023-04-01T11:54:43.310Z,28.40
2023-04-01T11:57:32.813Z,28.26
2023-04-01T12:00:15.169Z,27.71
2023-04-01T12:03:01.294Z,28.13
2023-04-01T12:05:45.482Z,29.25
2023-04-01T12:08:26.186Z,28.15
2023-04-01T12:11:03.656Z,28.99
2023-04-01T12:13:45.620Z,29.74
2023-04-01T12:16:33.219Z,29.96
2023-04-01T12:19:12.908Z,30.51
2023-04-01T12:21:50.741Z,30.82
2023-04-01T12:24:48.452Z,29.68
2023-04-01T12:27:28.914Z,29.76
2023-04-01T12:30:13.826Z,28.51
2023-04-01T12:32:48.523Z,28.78
2023-04-01T12:35:24.127Z,28.19
2023-04-01T12:38:06.923Z,27.33
2023-04-01T12:40:53.350Z,25.71
2023-04-01T12:43:35.105Z,25.72
2023-04-01T12:46:15.599Z,25.39
2023-04-01T12:49:23.336Z,24.72
2023-04-01T12:52:09.395Z,24.50
2023-04-01T12:55:10.099Z,22.28
2023-04-01T12:58:22.563Z,22.28
2023-04-01T13:01:11.263Z,22.46
2023-04-01T13:04:14.701Z,21.09
2023-04-01T13:07:12.107Z,21.44
2023-04-01T13:09:53.508Z,19.87
2023-04-01T13:12:38.516Z,18.98
2023-04-01T13:15:22.843Z,17.95
2023-04-01T13:18:00.549Z,17.41
2023-04-01T13:20:44.052Z,17.32
2023-04-01T13:23:22.354Z,17.24
2023-04-01T13:26:11.313Z,16.99
2023-04-01T13:28:47.802Z,17.04
2023-04-01T13:31:29.363Z,16.93
2023-04-01T13:34:09.337Z,17.20
2023-04-01T13:36:49.019Z,17.29
2023-04-01T13:39:35.589Z,16.23
2023-04-01T13:42:21.396Z,15.92
2023-04-01T13:44:53.704Z,15.92
2023-04-01T13:47:51.250Z,15.53
2023-04-01T13:50:40.202Z,15.82
2023-04-01T13:53:41.267Z,15.13
2023-04-01T13:56:30.619Z,15.53
2023-04-01T13:59:15.883Z,15.53
2023-04-01T14:01:51.453Z,15.95
2023-04-01T14:04:49.149Z,15.79
2023-04-01T14:07:42.006Z,15.97
2023-04-01T14:10:21.016Z,16.12
2023-04-01T14:12:58.636Z,15.57
2023-04-01T14:15:44.240Z,16.07
2023-04-01T14:18:44.382Z,15.33
2023-04-01T14:21:35.028Z,15.27
2023-04-01T14:24:20.594Z,15.63
2023-04-01T14:27:25.971Z,15.31
2023-04-01T14:30:07.351Z,15.57
2023-04-01T14:32:48.429Z,15.65
2023-04-01T14:35:32.804Z,16.04
2023-04-01T14:38:19.000Z,15.46
2023-04-01T14:41:19.219Z,14.82
2023-04-01T14:44:07.747Z,14.29
2023-04-01T14:47:01.363Z,14.29
2023-04-01T14:49:36.702Z,15.53
2023-04-01T14:52:16.171Z,16.23
2023-04-01T14:54:49.167Z,17.05
2023-04-01T14:57:25.574Z,17.17
2023-04-01T15:00:01.653Z,17.06
2023-04-01T15:02:51.809Z,18.00
2023-04-01T15:05:35.583Z,17.53
2023-04-01T15:08:13.381Z,17.77
2023-04-01T15:11:23.702Z,17.60
2023-04-01T15:14:31.165Z,17.59
2023-04-01T15:17:19.107Z,16.55
2023-04-01T15:20:04.404Z,16.06
2023-04-01T15:22:53.559Z,16.70
2023-04-01T15:25:35.720Z,16.69
2023-04-01T15:28:12.481Z,15.77
2023-04-01T15:30:53.645Z,14.59
2023-04-01T15:33:55.110Z,15.43
2023-04-01T15:36:36.274Z,15.56
2023-04-01T15:39:16.455Z,15.74
2023-04-01T15:42:10.104Z,16.15
2023-04-01T15:44:49.890Z,16.24
2023-04-01T15:47:44.313Z,16.18
2023-04-01T15:50:53.919Z,16.42
2023-04-01T15:53:39.579Z,16.90
2023-04-01T15:56:28.722Z,16.68
2023-04-01T15:59:06.965Z,16.19
2023-04-01T16:01:46.146Z,15.66
2023-04-01T16:04:42.160Z,14.86
2023-04-01T16:07:30.817Z,14.16
2023-04-01T16:10:11.866Z,14.44
2023-04-01T16:12:54.247Z,14.01
2023-04-01T16:15:30.617Z,13.29
2023-04-01T16:18:23.401Z,13.31
2023-04-01T16:20:57.005Z,13.38
2023-04-01T16:23:35.890Z,13.39
2023-04-01T16:26:10.381Z,13.78
2023-04-01T16:28:45.718Z,14.21
2023-04-01T16:31:27.169Z,14.04
2023-04-01T16:34:03.941Z,14.30
2023-04-01T16:36:38.482Z,14.49
2023-04-01T16:39:25.122Z,13.94
2023-04-01T16:42:11.592Z,14.58
2023-04-01T16:44:52.673Z,14.75
2023-04-01T16:47:25.468Z,13.92
2023-04-01T16:50:00.639Z,13.66
2023-04-01T16:53:00.766Z,13.29
2023-04-01T16:55:47.523Z,13.53
2023-04-01T16:58:25.638Z,13.12
2023-04-01T17:00:58.438Z,13.44
2023-04-01T17:03:32.115Z,13.60
2023-04-01T17:06:16.266Z,13.77
2023-04-01T17:09:01.381Z,14.27
2023-04-01T17:11:39.907Z,14.09
2023-04-01T17:14:18.449Z,14.24
2023-04-01T17:17:13.780Z,14.16
2023-04-01T17:20:04.755Z,14.29
2023-04-01T17:22:39.980Z,13.31
2023-04-01T17:25:22.857Z,14.12
2023-04-01T17:27:59.869Z,13.31
2023-04-01T17:30:33.783Z,13.79
2023-04-01T17:33:29.486Z,13.53
2023-04-01T17:36:01.863Z,13.54
2023-04-01T17:38:47.995Z,13.42
2023-04-01T17:41:28.143Z,13.32
2023-04-01T17:44:11.662Z,13.29
2023-04-01T17:46:47.963Z,13.47
2023-04-01T17:49:30.136Z,13.41
2023-04-01T17:52:05.551Z,13.49
2023-04-01T17:54:42.662Z,13.76
2023-04-01T17:57:32.149Z,13.84
2023-04-01T18:00:05.754Z,13.46
2023-04-01T18:02:47.789Z,12.67
2023-04-01T18:05:41.094Z,13.01
2023-04-01T18:08:20.092Z,12.66
2023-04-01T18:11:00.922Z,12.65
2023-04-01T18:13:57.133Z,12.77
2023-04-01T18:16:41.496Z,12.41
2023-04-01T18:19:17.736Z,12.28
2023-04-01T18:21:49.749Z,12.40
2023-04-01T18:24:26.210Z,12.14
2023-04-01T18:27:05.489Z,11.69
2023-04-01T18:29:41.616Z,11.41
2023-04-01T18:32:29.228Z,11.64
2023-04-01T18:35:04.813Z,11.96
2023-04-01T18:37:39.491Z,11.05
2023-04-01T18:40:20.180Z,12.04
2023-04-01T18:43:02.417Z,12.41
2023-04-01T18:45:34.453Z,12.44
2023-04-01T18:48:16.892Z,12.94
2023-04-01T18:50:53.376Z,12.77
2023-04-01T18:53:31.020Z,12.94
2023-04-01T18:56:02.866Z,13.07
2023-04-01T18:58:51.252Z,13.07
2023-04-01T19:01:26.378Z,12.96
2023-04-01T19:04:14.705Z,12.90
2023-04-01T19:06:50.459Z,12.89
2023-04-01T19:09:23.985Z,12.82
2023-04-01T19:12:17.682Z,13.41
2023-04-01T19:15:06.779Z,13.25
2023-04-01T19:17:48.462Z,13.26
2023-04-01T19:20:26.868Z,13.20
2023-04-01T19:23:13.417Z,13.36
2023-04-01T19:25:46.634Z,13.36
2023-04-01T19:28:34.721Z,12.88
2023-04-01T19:31:16.722Z,12.99
2023-04-01T19:34:01.401Z,12.92
2023-04-01T19:36:38.899Z,13.22
2023-04-01T19:39:18.245Z,13.29
2023-04-01T19:41:52.835Z,13.40
2023-04-01T19:44:31.379Z,13.29
2023-04-01T19:47:06.980Z,13.14
2023-04-01T19:49:51.442Z,12.98
2023-04-01T19:52:26.398Z,13.05
2023-04-01T19:54:59.564Z,13.44
2023-04-01T19:57:40.657Z,13.54
2023-04-01T20:00:17.803Z,13.37
2023-04-01T20:02:59.301Z,13.27
2023-04-01T20:05:41.499Z,13.17
2023-04-01T20:08:28.345Z,12.21
2023-04-01T20:11:07.496Z,11.98
2023-04-01T20:13:48.506Z,12.44
2023-04-01T20:16:17.694Z,12.82
2023-04-01T20:18:53.161Z,12.21
2023-04-01T20:21:32.469Z,12.17
2023-04-01T20:24:07.607Z,12.20
2023-04-01T20:26:38.991Z,11.69
2023-04-01T20:29:25.572Z,11.97
2023-04-01T20:32:07.777Z,11.98
2023-04-01T20:34:55.217Z,11.58
2023-04-01T20:37:34.689Z,11.72
2023-04-01T20:40:33.506Z,11.98
2023-04-01T20:43:32.132Z,12.71
2023-04-01T20:46:03.997Z,11.86
2023-04-01T20:49:16.228Z,11.63
2023-04-01T20:51:55.806Z,11.27
2023-04-01T20:54:39.210Z,11.49
2023-04-01T20:57:15.669Z,11.54
2023-04-01T21:00:06.023Z,12.18
2023-04-01T21:02:49.549Z,12.46
2023-04-01T21:05:35.514Z,12.50
2023-04-01T21:08:12.953Z,12.45
2023-04-01T21:10:49.071Z,11.97
2023-04-01T21:13:32.349Z,11.01
2023-04-01T21:16:12.767Z,11.43
2023-04-01T21:19:10.909Z,11.70
2023-04-01T21:21:56.550Z,10.60
2023-04-01T21:25:05.884Z,11.37
2023-04-01T21:27:49.175Z,11.25
2023-04-01T21:30:44.796Z,11.24
2023-04-01T21:33:39.076Z,11.09
2023-04-01T21:36:19.786Z,10.58
2023-04-01T21:39:03.693Z,10.86
2023-04-01T21:42:07.333Z,11.26
2023-04-01T21:45:01.053Z,11.47
2023-04-01T21:48:06.539Z,11.21
2023-04-01T21:51:04.815Z,10.34
2023-04-01T21:54:06.226Z,10.55
2023-04-01T21:57:06.759Z,10.91
2023-04-01T22:00:13.653Z,10.92
2023-04-01T22:03:26.775Z,11.40
2023-04-01T22:06:05.555Z,11.48
2023-04-01T22:08:48.260Z,11.63
2023-04-01T22:11:26.553Z,11.61
2023-04-01T22:14:02.560Z,11.67
2023-04-01T22:16:40.872Z,11.09
2023-04-01T22:19:21.066Z,10.60
2023-04-01T22:22:02.621Z,10.80
2023-04-01T22:24:39.832Z,10.60
2023-04-01T22:27:14.539Z,11.03
2023-04-01T22:29:50.369Z,11.26
2023-04-01T22:32:23.955Z,10.85
2023-04-01T22:35:02.855Z,11.23
2023-04-01T22:37:39.782Z,11.13
2023-04-01T22:40:23.713Z,11.04
2023-04-01T22:42:59.279Z,11.00
2023-04-01T22:45:43.850Z,11.18
2023-04-01T22:48:20.550Z,10.94
2023-04-01T22:50:54.263Z,11.27
2023-04-01T22:53:38.048Z,10.67
2023-04-01T22:56:09.605Z,10.48
2023-04-01T22:58:44.388Z,11.22
2023-04-01T23:01:18.158Z,11.31
2023-04-01T23:03:51.323Z,11.27
2023-04-01T23:06:23.204Z,10.57
2023-04-01T23:09:03.915Z,10.36
2023-04-01T23:11:37.395Z,10.81
2023-04-01T23:14:34.798Z,10.61
2023-04-01T23:17:13.623Z,10.48
2023-04-01T23:19:49.602Z,10.96
2023-04-01T23:22:26.029Z,10.50
2023-04-01T23:25:03.883Z,10.79
2023-04-01T23:27:37.317Z,10.24
2023-04-01T23:30:06.635Z,10.41
2023-04-01T23:32:34.966Z,9.98
2023-04-01T23:35:03.416Z,10.01
2023-04-01T23:37:31.712Z,10.11
2023-04-01T23:40:02.102Z,10.01
2023-04-01T23:42:32.910Z,8.74
2023-04-01T23:45:05.370Z,10.13
2023-04-01T23:47:36.173Z,10.26
2023-04-01T23:50:08.802Z,9.39
2023-04-01T23:52:41.552Z,9.74
2023-04-01T23:55:19.498Z,10.08
2023-04-01T23:58:04.783Z,10.57
